Data for 12/18/2010

Time Sea-Level Adjusted Pressure Absolute Pressure Temperature Relative Humidity Dew Point   
(mb) (inHg) (mb) (inHg) (C) (F) (%) (C) (F)
00:05 1015 29.97 844 24.92 -15.2 4.7 82 -17.6 0.3
00:10 1015 29.97 844 24.92 -15.2 4.6 82 -17.6 0.3
00:15 1015 29.97 844 24.92 -15.3 4.5 83 -17.6 0.3
00:20 1015 29.97 844 24.92 -15.2 4.7 82 -17.6 0.3
00:25 1015 29.97 845 24.95 -15.1 4.8 82 -17.5 0.5
00:30 1015 29.97 845 24.95 -15 5.1 81 -17.5 0.5
00:35 1015 29.97 844 24.92 -14.7 5.5 78 -17.7 0.2
00:40 1015 29.97 844 24.92 -14.9 5.2 80 -17.6 0.3
00:45 1015 29.97 844 24.92 -15.5 4.1 86 -17.4 0.7
00:50 1015 29.97 844 24.92 -16.4 2.5 90 -17.7 0.1
00:55 1015 29.97 844 24.92 -16.8 1.7 91 -18 -0.4
01:00 1015 29.97 844 24.92 -16.8 1.9 91 -17.9 -0.3
01:05 1015 29.97 844 24.92 -16.7 2 90 -17.9 -0.3
01:10 1015 29.97 844 24.92 -16.7 2 90 -18 -0.3
01:15 1015 29.97 844 24.92 -16.5 2.2 89 -17.9 -0.3
01:20 1015 29.97 844 24.92 -16.4 2.4 89 -17.8 -0
01:25 1015 29.97 844 24.92 -16.3 2.7 88 -17.9 -0.1
01:30 1015 29.97 844 24.92 -16.5 2.3 88 -18 -0.3
01:35 1015 29.97 844 24.92 -16.5 2.3 87 -18.1 -0.6
01:40 1015 29.97 844 24.92 -16.7 1.9 88 -18.3 -0.9
01:45 1015 29.97 844 24.92 -16.6 2.1 87 -18.3 -0.9
01:50 1015 29.97 844 24.92 -16.9 1.6 87 -18.5 -1.3
01:55 1015 29.97 844 24.92 -17 1.5 88 -18.6 -1.4
02:00 1014 29.94 844 24.92 -16.8 1.8 88 -18.3 -1
02:05 1014 29.94 844 24.92 -16.6 2.1 86 -18.4 -1.1
02:10 1014 29.94 844 24.92 -16.6 2.2 88 -18.1 -0.6
02:15 1014 29.94 843 24.89 -16.5 2.3 88 -18.1 -0.5
02:20 1014 29.94 843 24.89 -16.4 2.5 89 -17.8 -0.1
02:25 1014 29.94 843 24.89 -16.1 3 88 -17.6 0.3
02:30 1014 29.94 844 24.92 -16.1 3 88 -17.7 0.1
02:35 1014 29.94 844 24.92 -16.2 2.8 87 -17.8 -0.1
02:40 1015 29.97 844 24.92 -16.1 3 88 -17.6 0.3
02:45 1014 29.94 844 24.92 -16 3.3 88 -17.5 0.5
02:50 1014 29.94 844 24.92 -16 3.2 87 -17.7 0.1
02:55 1015 29.97 844 24.92 -16.4 2.5 87 -18.1 -0.6
03:00 1015 29.97 844 24.92 -16.6 2.2 87 -18.2 -0.8
03:05 1014 29.94 844 24.92 -16.6 2.2 87 -18.2 -0.8
03:10 1014 29.94 844 24.92 -16.6 2.1 86 -18.4 -1.2
03:15 1014 29.94 843 24.89 -17 1.4 85 -18.9 -2
03:20 1014 29.94 843 24.89 -17.4 0.7 86 -19.2 -2.6
03:25 1014 29.94 843 24.89 -17.5 0.5 86 -19.3 -2.8
03:30 1014 29.94 843 24.89 -17.5 0.4 86 -19.3 -2.8
03:35 1014 29.94 843 24.89 -17.4 0.8 87 -19.1 -2.3
03:40 1014 29.94 843 24.89 -17.2 1.1 86 -18.9 -2.1
03:45 1014 29.94 843 24.89 -17.3 0.9 87 -19 -2.2
03:50 1014 29.94 843 24.89 -17.2 1.1 87 -18.9 -2
03:55 1014 29.94 843 24.89 -17.1 1.2 87 -18.9 -2
04:00 1014 29.94 843 24.89 -17 1.5 88 -18.5 -1.3
04:05 1014 29.94 843 24.89 -16.4 2.5 88 -18 -0.4
04:10 1014 29.94 843 24.89 -16.4 2.6 87 -18 -0.4
04:15 1014 29.94 843 24.89 -16.5 2.2 86 -18.4 -1.1
04:20 1013 29.91 843 24.89 -17.1 1.3 85 -19 -2.3
04:25 1013 29.91 843 24.89 -17.3 0.9 86 -19.1 -2.4
04:30 1013 29.91 842 24.86 -17.3 0.9 86 -19.1 -2.3
04:35 1013 29.91 843 24.89 -17.2 1 87 -18.8 -1.9
04:40 1014 29.94 843 24.89 -16.9 1.6 87 -18.6 -1.5
04:45 1014 29.94 843 24.89 -16.8 1.7 87 -18.6 -1.4
04:50 1014 29.94 843 24.89 -16.9 1.5 86 -18.7 -1.7
04:55 1014 29.94 843 24.89 -17.2 1.1 86 -19 -2.2
05:00 1014 29.94 843 24.89 -17.4 0.7 86 -19.2 -2.6
05:05 1014 29.94 843 24.89 -17.4 0.6 86 -19.2 -2.6
05:10 1014 29.94 843 24.89 -17.5 0.5 86 -19.3 -2.8
05:15 1014 29.94 843 24.89 -17.6 0.3 87 -19.3 -2.8
05:20 1013 29.91 842 24.86 -17.6 0.4 87 -19.3 -2.7
05:25 1013 29.91 842 24.86 -17.4 0.6 87 -19.1 -2.4
05:30 1013 29.91 843 24.89 -17.3 0.9 87 -19 -2.1
05:35 1013 29.91 842 24.86 -17 1.4 88 -18.6 -1.5
05:40 1013 29.91 842 24.86 -16.6 2.1 88 -18.2 -0.8
05:45 1013 29.91 842 24.86 -16.5 2.4 87 -18.1 -0.6
05:50 1013 29.91 842 24.86 -16.5 2.4 87 -18.1 -0.6
05:55 1013 29.91 842 24.86 -16.4 2.4 87 -18 -0.5
06:00 1013 29.91 842 24.86 -16.4 2.5 87 -18 -0.5
06:05 1012 29.88 842 24.86 -16.5 2.3 87 -18.2 -0.8
06:10 1012 29.88 842 24.86 -16.6 2.1 87 -18.3 -0.9
06:15 1012 29.88 842 24.86 -16.6 2.2 87 -18.2 -0.8
06:20 1012 29.88 841 24.83 -16.5 2.3 87 -18.2 -0.7
06:25 1012 29.88 841 24.83 -16.6 2.1 87 -18.3 -1
06:30 1012 29.88 841 24.83 -16.7 2 87 -18.3 -1
06:35 1012 29.88 841 24.83 -16.7 1.9 87 -18.3 -1
06:40 1012 29.88 842 24.86 -16.6 2.1 88 -18.2 -0.8
06:45 1012 29.88 842 24.86 -16.4 2.5 88 -18 -0.4
06:50 1013 29.91 842 24.86 -16.3 2.7 87 -17.9 -0.3
06:55 1013 29.91 842 24.86 -16.3 2.6 88 -17.9 -0.3
07:00 1013 29.91 842 24.86 -16.4 2.5 87 -18.1 -0.5
07:05 1012 29.88 842 24.86 -16.4 2.5 87 -18.1 -0.5
07:10 1012 29.88 841 24.83 -16.5 2.4 87 -18.2 -0.7
07:15 1012 29.88 841 24.83 -16.6 2.1 86 -18.4 -1.1
07:20 1012 29.88 841 24.83 -16.8 1.7 86 -18.6 -1.5
07:25 1012 29.88 841 24.83 -17 1.3 86 -18.8 -1.9
07:30 1012 29.88 841 24.83 -17.1 1.2 86 -18.9 -2
07:35 1012 29.88 841 24.83 -17.2 1.1 86 -18.9 -2
07:40 1012 29.88 841 24.83 -17.2 1.1 86 -18.9 -2.1
07:45 1012 29.88 841 24.83 -17.3 0.9 86 -19 -2.3
07:50 1011 29.85 841 24.83 -17.3 0.9 86 -19.1 -2.3
07:55 1011 29.85 840 24.81 -17.3 0.8 86 -19.1 -2.3
08:00 1011 29.85 840 24.81 -17.3 0.8 86 -19.1 -2.3
08:05 1011 29.85 840 24.81 -17.3 0.8 87 -19.1 -2.3
08:10 1011 29.85 840 24.81 -17.2 1.1 87 -18.8 -1.9
08:15 1011 29.85 840 24.81 -17 1.4 87 -18.7 -1.6
08:20 1011 29.85 840 24.81 -16.9 1.6 87 -18.6 -1.5
08:25 1011 29.85 840 24.81 -16.9 1.5 87 -18.6 -1.6
08:30 1011 29.85 840 24.81 -16.9 1.5 86 -18.7 -1.7
08:35 1011 29.85 840 24.81 -16.9 1.5 87 -18.6 -1.4
08:40 1011 29.85 840 24.81 -16.7 1.9 87 -18.4 -1.1
08:45 1011 29.85 840 24.81 -16.6 2.1 87 -18.2 -0.8
08:50 1011 29.85 840 24.81 -16.5 2.4 87 -18.1 -0.6
08:55 1011 29.85 840 24.81 -16.4 2.4 87 -18.1 -0.5
09:00 1011 29.85 840 24.81 -16.3 2.7 88 -17.8 -0.1
09:05 1011 29.85 840 24.81 -16.1 3.1 88 -17.6 0.3
09:10 1011 29.85 840 24.81 -15.9 3.3 88 -17.5 0.4
09:15 1011 29.85 840 24.81 -15.8 3.5 88 -17.4 0.7
09:20 1011 29.85 840 24.81 -15.6 3.9 88 -17.1 1.1
09:25 1011 29.85 840 24.81 -15.5 4.2 88 -17 1.4
09:30 1011 29.85 840 24.81 -15.5 4.2 88 -17 1.4
09:35 1011 29.85 840 24.81 -15.2 4.6 89 -16.7 2
09:40 1011 29.85 840 24.81 -14.9 5.2 88 -16.4 2.5
09:45 1011 29.85 840 24.81 -14.8 5.5 87 -16.4 2.5
09:50 1011 29.85 840 24.81 -15 5 87 -16.8 1.8
09:55 1011 29.85 840 24.81 -15.3 4.5 87 -16.9 1.6
10:00 1011 29.85 840 24.81 -15.2 4.6 89 -16.7 1.9
10:05 1011 29.85 840 24.81 -14.9 5.1 89 -16.3 2.6
10:10 1010 29.83 840 24.81 -14.6 5.8 89 -16 3.3
10:15 1010 29.83 840 24.81 -14.4 6.1 88 -15.9 3.4
10:20 1010 29.83 840 24.81 -14.5 6 87 -16.1 3
10:25 1010 29.83 840 24.81 -14.6 5.8 89 -16 3.3
10:30 1010 29.83 840 24.81 -14.6 5.6 88 -16.2 2.8
10:35 1010 29.83 840 24.81 -14.7 5.5 90 -16 3.1
10:40 1010 29.83 840 24.81 -14.2 6.5 89 -15.6 4
10:45 1010 29.83 839 24.78 -14 6.9 88 -15.5 4
10:50 1010 29.83 839 24.78 -13.9 7.1 88 -15.4 4.2
10:55 1010 29.83 839 24.78 -14.3 6.4 88 -15.8 3.6
11:00 1010 29.83 839 24.78 -14.1 6.7 90 -15.4 4.3
11:05 1010 29.83 839 24.78 -13.6 7.6 89 -15.1 4.9
11:10 1010 29.83 839 24.78 -13.7 7.4 89 -15.1 4.8
11:15 1010 29.83 839 24.78 -13.5 7.7 90 -14.8 5.4
11:20 1010 29.83 839 24.78 -13 8.6 88 -14.5 5.9
11:25 1010 29.83 839 24.78 -13 8.7 90 -14.2 6.4
11:30 1009 29.8 839 24.78 -12.7 9.2 89 -14.2 6.5
11:35 1009 29.8 839 24.78 -13 8.7 87 -14.7 5.5
11:40 1009 29.8 839 24.78 -13.2 8.2 89 -14.7 5.6
11:45 1009 29.8 839 24.78 -13 8.6 89 -14.4 6.1
11:50 1009 29.8 838 24.75 -12.8 8.9 89 -14.2 6.4
11:55 1009 29.8 838 24.75 -12.9 8.8 87 -14.6 5.7
12:00 1009 29.8 838 24.75 -13.5 7.8 89 -15 5.1
12:05 1009 29.8 838 24.75 -13.2 8.2 89 -14.6 5.7
12:10 1009 29.8 838 24.75 -12.8 9 89 -14.3 6.2
12:15 1009 29.8 838 24.75 -12.8 9 89 -14.2 6.4
12:20 1009 29.8 838 24.75 -12.8 8.9 89 -14.3 6.2
12:25 1009 29.8 838 24.75 -12.8 8.9 89 -14.3 6.3
12:30 1009 29.8 838 24.75 -12.8 8.9 90 -14.2 6.4
12:35 1009 29.8 838 24.75 -12.8 8.9 88 -14.4 6.1
12:40 1009 29.8 838 24.75 -12.7 9.1 89 -14.2 6.5
12:45 1009 29.8 838 24.75 -12.4 9.6 88 -14 6.9
12:50 1008 29.77 838 24.75 -12.4 9.7 88 -14.1 6.7
12:55 1008 29.77 837 24.72 -12.6 9.3 88 -14.2 6.4
13:00 1008 29.77 837 24.72 -12.8 8.9 86 -14.6 5.7
13:05 1008 29.77 837 24.72 -13.1 8.3 88 -14.8 5.4
13:10 1008 29.77 837 24.72 -12.8 9 89 -14.2 6.5
13:15 1008 29.77 837 24.72 -12.2 10.1 89 -13.6 7.5
13:20 1008 29.77 837 24.72 -12.1 10.3 89 -13.6 7.6
13:25 1008 29.77 837 24.72 -11.9 10.5 88 -13.5 7.7
13:30 1008 29.77 837 24.72 -12.1 10.3 86 -14 6.8
13:35 1008 29.77 837 24.72 -12.1 10.2 88 -13.7 7.4
13:40 1008 29.77 837 24.72 -11.8 10.8 89 -13.3 8.1
13:45 1008 29.77 837 24.72 -11.7 11 87 -13.4 7.9
13:50 1008 29.77 837 24.72 -11.7 11 85 -13.7 7.4
13:55 1008 29.77 837 24.72 -12.3 9.9 87 -14 6.8
14:00 1008 29.77 837 24.72 -12.2 10 85 -14.3 6.3
14:05 1008 29.77 837 24.72 -12.2 10 89 -13.7 7.4
14:10 1008 29.77 837 24.72 -11.9 10.6 86 -13.7 7.3
14:15 1008 29.77 837 24.72 -11.9 10.7 83 -14.2 6.4
14:20 1008 29.77 837 24.72 -12.3 9.9 85 -14.4 6.1
14:25 1008 29.77 837 24.72 -12 10.3 88 -13.6 7.4
14:30 1008 29.77 837 24.72 -11.9 10.6 85 -13.9 6.9
14:35 1008 29.77 837 24.72 -12.1 10.2 85 -14.2 6.5
14:40 1008 29.77 837 24.72 -12.2 10 87 -13.9 7
14:45 1008 29.77 837 24.72 -11.8 10.7 88 -13.5 7.7
14:50 1008 29.77 837 24.72 -11.7 11 83 -14 6.8
14:55 1008 29.77 837 24.72 -12.2 10.1 84 -14.3 6.3
15:00 1008 29.77 837 24.72 -12.5 9.4 87 -14.2 6.4
15:05 1008 29.77 837 24.72 -12.1 10.2 87 -13.9 7
15:10 1008 29.77 837 24.72 -12.3 9.8 86 -14.2 6.4
15:15 1008 29.77 837 24.72 -12.2 10 86 -14.1 6.7
15:20 1008 29.77 837 24.72 -12.2 10 86 -14 6.7
15:25 1008 29.77 837 24.72 -12.2 10.1 88 -13.8 7.1
15:30 1008 29.77 837 24.72 -11.9 10.6 86 -13.8 7.2
15:35 1008 29.77 837 24.72 -11.9 10.6 88 -13.5 7.6
15:40 1008 29.77 837 24.72 -11.7 10.9 86 -13.5 7.6
15:45 1008 29.77 837 24.72 -11.9 10.6 86 -13.8 7.1
15:50 1008 29.77 837 24.72 -12.4 9.8 87 -14.1 6.6
15:55 1008 29.77 837 24.72 -12.4 9.6 86 -14.3 6.2
16:00 1008 29.77 837 24.72 -12.3 9.9 85 -14.3 6.3
16:05 1008 29.77 837 24.72 -11.8 10.8 87 -13.6 7.6
16:10 1008 29.77 837 24.72 -11.5 11.4 86 -13.3 8
16:15 1008 29.77 838 24.75 -11.5 11.4 86 -13.4 7.9
16:20 1008 29.77 838 24.75 -11.5 11.3 87 -13.3 8.1
16:25 1008 29.77 837 24.72 -11.6 11.2 85 -13.6 7.6
16:30 1008 29.77 838 24.75 -11.7 10.9 86 -13.6 7.5
16:35 1008 29.77 838 24.75 -11.7 11 87 -13.4 7.9
16:40 1008 29.77 838 24.75 -11.5 11.3 87 -13.3 8
16:45 1008 29.77 838 24.75 -11.6 11.1 86 -13.5 7.7
16:50 1008 29.77 838 24.75 -11.8 10.8 85 -13.8 7.2
16:55 1008 29.77 837 24.72 -12.1 10.3 86 -13.9 6.9
17:00 1008 29.77 838 24.75 -12.4 9.7 87 -14.1 6.7
17:05 1008 29.77 837 24.72 -12.4 9.6 87 -14.1 6.6
17:10 1008 29.77 837 24.72 -12.5 9.5 87 -14.2 6.4
17:15 1008 29.77 838 24.75 -12.6 9.3 88 -14.2 6.4
17:20 1008 29.77 838 24.75 -12.6 9.3 88 -14.2 6.4
17:25 1008 29.77 838 24.75 -12.5 9.5 87 -14.2 6.4
17:30 1008 29.77 838 24.75 -12.4 9.7 88 -14 6.7
17:35 1008 29.77 838 24.75 -12.3 10 88 -13.9 7
17:40 1008 29.77 838 24.75 -12.3 9.9 88 -13.9 7
17:45 1008 29.77 838 24.75 -12.3 9.9 87 -14 6.9
17:50 1009 29.8 838 24.75 -12.3 9.8 87 -14 6.8
17:55 1009 29.8 838 24.75 -12.3 9.9 87 -14 6.8
18:00 1009 29.8 838 24.75 -12.3 9.9 87 -14 6.8
18:05 1009 29.8 838 24.75 -12.4 9.8 88 -14 6.8
18:10 1009 29.8 838 24.75 -12.4 9.6 87 -14.1 6.6
18:15 1009 29.8 838 24.75 -12.6 9.4 88 -14.2 6.4
18:20 1009 29.8 838 24.75 -12.7 9.2 87 -14.4 6.2
18:25 1009 29.8 838 24.75 -12.8 9 88 -14.4 6.1
18:30 1009 29.8 838 24.75 -12.8 9 88 -14.4 6.2
18:35 1009 29.8 838 24.75 -12.8 9 88 -14.4 6.1
18:40 1009 29.8 838 24.75 -13 8.6 88 -14.6 5.6
18:45 1009 29.8 838 24.75 -13.3 8.1 88 -14.8 5.3
18:50 1009 29.8 838 24.75 -13.3 8 89 -14.8 5.3
18:55 1009 29.8 838 24.75 -13.3 8.1 89 -14.8 5.4
19:00 1009 29.8 838 24.75 -13.4 8 88 -14.9 5.1
19:05 1009 29.8 838 24.75 -13.5 7.7 89 -15 5
19:10 1009 29.8 838 24.75 -13.5 7.7 89 -14.9 5.1
19:15 1009 29.8 838 24.75 -13.5 7.8 89 -15 5.1
19:20 1009 29.8 838 24.75 -13.5 7.7 89 -14.9 5.1
19:25 1009 29.8 838 24.75 -13.5 7.8 89 -14.9 5.1
19:30 1009 29.8 838 24.75 -13.4 7.9 89 -14.9 5.2
19:35 1009 29.8 838 24.75 -13.4 7.9 88 -14.9 5.2
19:40 1009 29.8 838 24.75 -13.4 7.8 88 -15 5.1
19:45 1009 29.8 838 24.75 -13.5 7.7 89 -15 5
19:50 1009 29.8 838 24.75 -13.5 7.8 88 -15 5
19:55 1009 29.8 838 24.75 -13.5 7.7 88 -15.1 4.8
20:00 1009 29.8 838 24.75 -13.5 7.7 88 -15.1 4.8
20:05 1008 29.77 838 24.75 -13.5 7.6 88 -15.1 4.9
20:10 1008 29.77 837 24.72 -13.7 7.4 89 -15.1 4.8
20:15 1008 29.77 837 24.72 -13.7 7.4 89 -15.2 4.7
20:20 1008 29.77 837 24.72 -13.6 7.4 88 -15.2 4.7
20:25 1008 29.77 837 24.72 -13.7 7.4 88 -15.2 4.6
20:30 1008 29.77 837 24.72 -13.6 7.4 88 -15.2 4.7
20:35 1008 29.77 838 24.75 -13.6 7.5 89 -15.1 4.8
20:40 1009 29.8 838 24.75 -13.5 7.6 89 -15 4.9
20:45 1009 29.8 838 24.75 -13.5 7.8 88 -15 5
20:50 1009 29.8 838 24.75 -13.3 8 89 -14.8 5.3
20:55 1009 29.8 838 24.75 -13.1 8.4 88 -14.7 5.6
21:00 1009 29.8 838 24.75 -13 8.6 88 -14.6 5.7
21:05 1009 29.8 838 24.75 -13.2 8.3 87 -14.9 5.3
21:10 1009 29.8 838 24.75 -13.4 7.9 88 -15 5
21:15 1009 29.8 838 24.75 -13.5 7.7 88 -15.1 4.9
21:20 1008 29.77 838 24.75 -13.4 7.9 88 -15 5
21:25 1008 29.77 837 24.72 -13.3 8.1 88 -14.9 5.3
21:30 1008 29.77 837 24.72 -13.2 8.2 87 -14.9 5.1
21:35 1008 29.77 837 24.72 -13.3 8.1 88 -14.9 5.2
21:40 1008 29.77 837 24.72 -13.1 8.5 88 -14.7 5.6
21:45 1008 29.77 837 24.72 -12.8 8.9 87 -14.6 5.8
21:50 1008 29.77 837 24.72 -12.8 9 87 -14.6 5.8
21:55 1008 29.77 837 24.72 -12.8 9 86 -14.6 5.7
22:00 1008 29.77 837 24.72 -12.7 9.1 87 -14.5 5.9
22:05 1008 29.77 837 24.72 -12.7 9.2 87 -14.4 6.1
22:10 1008 29.77 837 24.72 -12.5 9.4 88 -14.2 6.5
22:15 1008 29.77 837 24.72 -12.4 9.8 87 -14.1 6.6
22:20 1008 29.77 837 24.72 -12.3 9.9 87 -14.1 6.7
22:25 1008 29.77 837 24.72 -12.3 9.9 87 -14 6.7
22:30 1008 29.77 837 24.72 -12.4 9.8 86 -14.2 6.5
22:35 1008 29.77 837 24.72 -12.4 9.7 87 -14.1 6.6
22:40 1008 29.77 837 24.72 -12.3 9.9 86 -14.1 6.6
22:45 1008 29.77 837 24.72 -12.1 10.2 87 -13.9 7
22:50 1008 29.77 837 24.72 -12.1 10.3 86 -13.9 7
22:55 1008 29.77 837 24.72 -12.2 10.1 87 -14 6.9
23:00 1008 29.77 837 24.72 -12.4 9.8 87 -14.1 6.6
23:05 1008 29.77 837 24.72 -12.4 9.8 87 -14.1 6.6
23:10 1008 29.77 837 24.72 -12.4 9.7 88 -14.1 6.7
23:15 1008 29.77 837 24.72 -12.2 10.1 87 -13.9 7
23:20 1008 29.77 837 24.72 -12.1 10.2 86 -14 6.8
23:25 1008 29.77 837 24.72 -12.4 9.7 88 -14.1 6.7
23:30 1008 29.77 837 24.72 -12.5 9.4 88 -14.1 6.6
23:35 1008 29.77 837 24.72 -12.5 9.5 89 -14 6.8
23:40 1008 29.77 837 24.72 -12.1 10.2 88 -13.8 7.2
23:45 1008 29.77 837 24.72 -11.9 10.5 86 -13.8 7.2
23:50 1008 29.77 837 24.72 -12 10.4 86 -13.9 7
23:55 1008 29.77 837 24.72 -12.3 9.9 87 -14 6.8
24:00 1008 29.77 837 24.72 -12.2 10.1 88 -13.7 7.3